Euskara    
Meteorología y climatología de Navarra
Datos de la estación - Meteo Navarra

Estación de Gorramendi GN

Altitud 1071 m.


Datos desde el 18/10/2020 hasta el 19/10/2020 en horario solar
Los datos son PROVISIONALES

Anterior Página 1 de 1 Siguiente Descargar: Formato para Excel 2000 o superior   Formato csv   Formato para OpenOffice Calc
Fecha Temperatura Humedad relativa Radiación global Insolación Precipitación Vel. viento 10 m Vel. viento 10 m Dir. viento 10 m
°C % W/m² s l/m² m/s km/h °
18/10/2020 0:00 7.2 73 0.0 0 0.0 3.3 11.8 - -
18/10/2020 0:10 7.2 70 0.0 0 0.0 3.0 10.8 - -
18/10/2020 0:20 7.5 53 0.0 0 0.0 4.1 14.8 - -
18/10/2020 0:30 7.5 65 0.0 0 0.0 3.5 12.6 - -
18/10/2020 0:40 7.3 68 0.0 0 0.0 3.1 11.2 - -
18/10/2020 0:50 7.8 49 0.0 0 0.0 3.9 14.1 - -
18/10/2020 1:00 8.2 43 0.0 0 0.0 3.8 13.6 - -
18/10/2020 1:10 8.2 42 0.0 0 0.0 3.6 12.8 - -
18/10/2020 1:20 8.3 46 0.0 0 0.0 3.6 12.9 - -
18/10/2020 1:30 8.4 45 0.0 0 0.0 3.5 12.6 - -
18/10/2020 1:40 8.2 47 0.0 0 0.0 2.8 10.1 - -
18/10/2020 1:50 8.3 46 0.0 0 0.0 2.9 10.4 - -
18/10/2020 2:00 8.6 40 0.0 0 0.0 3.4 12.3 - -
18/10/2020 2:10 8.8 38 0.0 0 0.0 3.2 11.4 - -
18/10/2020 2:20 8.8 38 0.0 0 0.0 3.1 11.3 - -
18/10/2020 2:30 8.9 37 0.0 0 0.0 3.2 11.3 - -
18/10/2020 2:40 8.9 37 0.0 0 0.0 3.0 10.9 - -
18/10/2020 2:50 8.7 40 0.0 0 0.0 2.6 9.2 - -
18/10/2020 3:00 8.0 47 0.0 0 0.0 2.4 8.5 - -
18/10/2020 3:10 7.9 43 0.0 0 0.0 2.4 8.8 - -
18/10/2020 3:20 8.0 43 0.0 0 0.0 2.8 10.2 - -
18/10/2020 3:30 8.5 39 0.0 0 0.0 2.8 10.0 - -
18/10/2020 3:40 8.6 39 0.0 0 0.0 2.6 9.3 - -
18/10/2020 3:50 8.6 39 0.0 0 0.0 1.4 5.0 - -
18/10/2020 4:00 9.5 37 0.0 0 0.0 1.6 5.6 - -
18/10/2020 4:10 9.8 34 0.0 0 0.0 1.7 6.0 - -
18/10/2020 4:20 9.8 37 0.0 0 0.0 1.5 5.4 - -
18/10/2020 4:30 9.6 37 0.0 0 0.0 1.2 4.5 - -
18/10/2020 4:40 9.7 36 0.0 0 0.0 1.5 5.3 - -
18/10/2020 4:50 9.7 34 0.0 0 0.0 1.2 4.5 - -
18/10/2020 5:00 9.9 33 0.0 0 0.0 1.5 5.4 - -
18/10/2020 5:10 10.0 33 0.0 0 0.0 1.9 6.9 - -
18/10/2020 5:20 10.0 34 0.0 0 0.0 2.1 7.4 - -
18/10/2020 5:30 9.7 37 0.0 0 0.0 1.9 6.8 - -
18/10/2020 5:40 9.4 36 0.0 0 0.0 1.8 6.5 - -
18/10/2020 5:50 9.1 37 0.0 0 0.0 2.0 7.2 - -
18/10/2020 6:00 9.4 36 0.0 0 0.0 2.3 8.3 - -
18/10/2020 6:10 9.3 35 0.0 0 0.0 2.0 7.2 - -
18/10/2020 6:20 9.2 36 0.0 0 0.0 2.0 7.0 - -
18/10/2020 6:30 9.0 37 6.6 0 0.0 2.0 7.2 - -
18/10/2020 6:40 8.9 37 33.4 366 0.0 2.1 7.7 - -
18/10/2020 6:50 8.8 38 54.9 600 0.0 2.0 7.1 - -
18/10/2020 7:00 9.3 35 61.7 600 0.0 1.3 4.8 - -
18/10/2020 7:10 9.8 33 106.5 600 0.0 1.7 6.3 - -
18/10/2020 7:20 9.8 34 150.6 600 0.0 1.6 5.9 - -
18/10/2020 7:30 10.1 30 146.8 600 0.0 1.5 5.5 - -
18/10/2020 7:40 10.1 32 75.5 58 0.0 1.8 6.6 - -
18/10/2020 7:50 10.1 31 88.5 0 0.0 1.5 5.3 - -
18/10/2020 8:00 10.7 29 123.2 0 0.0 1.9 6.7 - -
18/10/2020 8:10 11.0 28 160.4 496 0.0 2.2 7.8 - -
18/10/2020 8:20 10.9 29 173.1 208 0.0 1.9 6.7 - -
18/10/2020 8:30 10.6 30 124.9 0 0.0 1.8 6.3 - -
18/10/2020 8:40 10.8 29 129.1 0 0.0 1.7 6.0 - -
18/10/2020 8:50 11.1 29 320.5 560 0.0 1.2 4.5 - -
18/10/2020 9:00 11.7 28 328.3 600 0.0 1.2 4.3 - -
18/10/2020 9:10 11.7 30 350.5 600 0.0 0.5 1.7 - -
18/10/2020 9:20 12.6 29 302.8 482 0.0 0.5 1.6 - -
18/10/2020 9:30 12.1 28 410.8 600 0.0 1.2 4.3 - -
18/10/2020 9:40 12.2 29 445.9 600 0.0 1.4 4.9 - -
18/10/2020 9:50 12.2 29 591.4 600 0.0 1.3 4.5 - -
18/10/2020 10:00 12.6 29 474.5 584 0.0 0.5 1.8 - -
18/10/2020 10:10 12.7 28 318.6 258 0.0 1.2 4.3 - -
18/10/2020 10:20 11.7 28 323.6 294 0.0 1.5 5.5 - -
18/10/2020 10:30 11.8 30 399.7 422 0.0 1.2 4.5 - -
18/10/2020 10:40 12.5 29 599.9 600 0.0 1.0 3.5 - -
18/10/2020 10:50 13.9 28 583.5 600 0.0 0.4 1.4 - -
18/10/2020 11:00 13.8 31 533.9 600 0.0 0.5 1.8 - -
18/10/2020 11:10 14.0 36 603.6 600 0.0 1.2 4.3 - -
18/10/2020 11:20 13.4 41 618.2 600 0.0 1.1 4.0 - -
18/10/2020 11:30 13.4 41 629.7 600 0.0 1.1 3.9 - -
18/10/2020 11:40 13.5 35 631.6 600 0.0 0.9 3.1 - -
18/10/2020 11:50 13.6 36 632.9 600 0.0 1.2 4.3 - -
18/10/2020 12:00 13.7 38 632.0 600 0.0 1.7 6.2 - -
18/10/2020 12:10 13.9 33 628.8 600 0.0 1.7 6.3 - -
18/10/2020 12:20 13.9 41 625.0 600 0.0 2.1 7.4 - -
18/10/2020 12:30 13.7 38 619.6 600 0.0 2.2 8.0 - -
18/10/2020 12:40 13.6 32 613.7 600 0.0 2.9 10.6 - -
18/10/2020 12:50 13.7 30 604.1 600 0.0 2.9 10.3 - -
18/10/2020 13:00 14.1 27 593.4 600 0.0 2.5 9.1 - -
18/10/2020 13:10 14.2 28 580.5 600 0.0 1.6 5.9 - -
18/10/2020 13:20 13.9 35 566.1 600 0.0 1.6 5.7 - -
18/10/2020 13:30 13.9 37 550.5 600 0.0 1.9 6.8 - -
18/10/2020 13:40 13.7 45 530.7 600 0.0 1.1 3.9 - -
18/10/2020 13:50 14.1 47 512.1 600 0.0 1.5 5.4 - -
18/10/2020 14:00 13.9 47 494.1 600 0.0 1.8 6.4 - -
18/10/2020 14:10 13.6 49 472.8 600 0.0 1.1 4.0 - -
18/10/2020 14:20 13.8 49 451.7 600 0.0 0.8 2.9 - -
18/10/2020 14:30 14.0 50 427.9 600 0.0 0.6 2.2 - -
18/10/2020 14:40 14.3 50 402.2 600 0.0 0.9 3.3 - -
18/10/2020 14:50 14.2 52 354.6 600 0.0 0.6 2.1 - -
18/10/2020 15:00 14.2 54 333.8 600 0.0 1.4 4.9 - -
18/10/2020 15:10 14.4 53 310.8 600 0.0 1.2 4.2 - -
18/10/2020 15:20 14.5 49 278.3 600 0.0 2.3 8.2 - -
18/10/2020 15:30 14.3 52 243.6 586 0.0 2.0 7.2 - -
18/10/2020 15:40 14.3 49 223.6 600 0.0 2.0 7.1 - -
18/10/2020 15:50 14.5 46 184.0 600 0.0 2.0 7.3 - -
18/10/2020 16:00 14.5 45 176.5 600 0.0 2.2 7.8 - -
18/10/2020 16:10 14.5 49 153.0 600 0.0 2.1 7.4 - -
18/10/2020 16:20 14.2 57 123.1 600 0.0 2.0 7.3 - -
18/10/2020 16:30 14.2 44 98.7 600 0.0 1.8 6.4 - -
18/10/2020 16:40 14.4 41 73.8 600 0.0 1.8 6.6 - -
18/10/2020 16:50 14.0 41 49.3 600 0.0 1.1 4.0 - -
18/10/2020 17:00 14.0 45 27.4 206 0.0 1.5 5.3 - -
18/10/2020 17:10 13.9 42 7.0 0 0.0 1.0 3.5 - -
18/10/2020 17:20 13.6 44 0.0 0 0.0 1.1 3.9 - -
18/10/2020 17:30 13.3 43 0.0 0 0.0 1.1 4.0 - -
18/10/2020 17:40 13.2 46 0.0 0 0.0 1.0 3.7 - -
18/10/2020 17:50 13.2 44 0.0 0 0.0 1.2 4.3 - -
18/10/2020 18:00 13.2 42 0.0 0 0.0 1.1 4.1 - -
18/10/2020 18:10 13.2 40 0.0 0 0.0 1.0 3.6 - -
18/10/2020 18:20 13.1 42 0.0 0 0.0 1.3 4.8 - -
18/10/2020 18:30 13.1 44 0.0 0 0.0 1.5 5.4 - -
18/10/2020 18:40 13.1 45 0.0 0 0.0 2.1 7.6 - -
18/10/2020 18:50 13.1 46 0.0 0 0.0 2.2 7.9 - -
18/10/2020 19:00 13.2 44 0.0 0 0.0 2.2 8.0 - -
18/10/2020 19:10 13.1 44 0.0 0 0.0 2.1 7.7 - -
18/10/2020 19:20 13.0 44 0.0 0 0.0 2.2 8.0 - -
18/10/2020 19:30 13.2 43 0.0 0 0.0 2.5 8.8 - -
18/10/2020 19:40 13.2 44 0.0 0 0.0 2.6 9.4 - -
18/10/2020 19:50 12.8 48 0.0 0 0.0 3.3 11.8 - -
18/10/2020 20:00 12.4 51 0.0 0 0.0 3.1 11.0 - -
18/10/2020 20:10 12.8 50 0.0 0 0.0 3.3 12.0 - -
18/10/2020 20:20 12.9 51 0.0 0 0.0 3.6 13.0 - -
18/10/2020 20:30 12.7 50 0.0 0 0.0 4.2 15.0 - -
18/10/2020 20:40 12.5 48 0.0 0 0.0 4.4 16.0 - -
18/10/2020 20:50 12.4 49 0.0 0 0.0 4.5 16.2 - -
18/10/2020 21:00 12.1 51 0.0 0 0.0 4.7 16.8 - -
18/10/2020 21:10 12.2 47 0.0 0 0.0 5.1 18.4 - -
18/10/2020 21:20 12.3 47 0.0 0 0.0 5.3 18.9 - -
18/10/2020 21:30 12.0 47 0.0 0 0.0 5.4 19.6 - -
18/10/2020 21:40 11.9 47 0.0 0 0.0 6.4 22.9 - -
18/10/2020 21:50 11.7 49 0.0 0 0.0 6.2 22.2 - -
18/10/2020 22:00 11.5 51 0.0 0 0.0 6.5 23.5 - -
18/10/2020 22:10 11.6 53 0.0 0 0.0 6.9 24.9 - -
18/10/2020 22:20 11.4 54 0.0 0 0.0 7.9 28.5 - -
18/10/2020 22:30 11.4 53 0.0 0 0.0 8.8 31.5 - -
18/10/2020 22:40 11.6 54 0.0 0 0.0 9.6 34.5 - -
18/10/2020 22:50 11.5 54 0.0 0 0.0 9.1 32.7 - -
18/10/2020 23:00 11.4 54 0.0 0 0.0 9.0 32.5 - -
18/10/2020 23:10 11.5 53 0.0 0 0.0 9.5 34.3 - -
18/10/2020 23:20 11.3 53 0.0 0 0.0 10.5 37.9 - -
18/10/2020 23:30 11.4 53 0.0 0 0.0 10.2 36.8 - -
18/10/2020 23:40 11.6 52 0.0 0 0.0 10.1 36.4 - -
18/10/2020 23:50 11.5 52 0.0 0 0.0 10.6 38.0 - -
Anterior Página 1 de 1 Siguiente
Los datos de precipitación registrados en estaciones que están en cumbres son inferiores a lo real, como consecuencia del efecto del viento y de la nieve.


NOTA: Tipo de datos según el color:
   - Valores diarios o 10 minutos correctos
   - Valores diarios calculados a partir de un número de datos 10 minutos menor que 144 y mayor que 120, o de un número de datos semihorarios menor que 48 y mayor que 40 (caso de las estaciones de INTIA Y Ministerio)
   - Valores diez minutos estimados


Contacto        Enlaces        Aviso legal